createdAt,value
2019-02-05T00:04:19.018Z,67.03
2019-02-05T00:06:49.285Z,66.74
2019-02-05T00:09:19.702Z,66.39
2019-02-05T00:11:50.078Z,66.12
2019-02-05T00:14:20.464Z,66.04
2019-02-05T00:16:50.842Z,65.68
2019-02-05T00:19:21.267Z,65.55
2019-02-05T00:21:51.639Z,65.38
2019-02-05T00:24:21.989Z,65.56
2019-02-05T00:26:52.480Z,65.74
2019-02-05T00:29:23.054Z,65.73
2019-02-05T00:31:53.703Z,65.81
2019-02-05T00:34:24.029Z,65.65
2019-02-05T00:36:54.474Z,65.80
2019-02-05T00:39:24.869Z,65.78
2019-02-05T00:42:57.725Z,65.96
2019-02-05T00:46:02.033Z,66.30
2019-02-05T00:51:28.669Z,66.60
2019-02-05T00:57:38.731Z,66.82
2019-02-05T01:05:04.529Z,66.58
2019-02-05T01:08:21.747Z,66.90
2019-02-05T01:30:11.546Z,67.00
2019-02-05T01:32:42.001Z,66.89
2019-02-05T01:35:12.574Z,66.84
2019-02-05T01:40:36.348Z,66.93
2019-02-05T01:43:06.687Z,67.08
2019-02-05T01:45:37.038Z,67.30
2019-02-05T01:49:03.293Z,67.44
2019-02-05T01:51:33.661Z,67.43
2019-02-05T02:10:25.924Z,67.05
2019-02-05T02:12:56.488Z,66.60
2019-02-05T02:15:27.050Z,66.29
2019-02-05T02:17:57.467Z,66.12
2019-02-05T02:20:27.993Z,65.93
2019-02-05T02:22:58.680Z,65.85
2019-02-05T02:25:29.091Z,66.30
2019-02-05T02:27:59.594Z,66.29
2019-02-05T02:31:50.353Z,66.75
2019-02-05T02:34:20.718Z,66.80
2019-02-05T02:36:51.074Z,66.75
2019-02-05T02:39:21.524Z,67.11
2019-02-05T02:41:51.872Z,67.00
2019-02-05T02:45:38.808Z,67.08
2019-02-05T02:49:05.193Z,67.03
2019-02-05T02:55:25.628Z,67.19
2019-02-05T02:57:55.994Z,67.42
2019-02-05T03:00:26.378Z,67.06
2019-02-05T03:02:56.740Z,66.94
2019-02-05T03:05:27.553Z,66.34
2019-02-05T03:07:58.148Z,65.73
2019-02-05T03:10:30.572Z,65.45
2019-02-05T03:13:00.990Z,64.59
2019-02-05T03:15:31.449Z,64.58
2019-02-05T03:18:01.925Z,64.07
2019-02-05T03:20:32.840Z,63.62
2019-02-05T03:23:03.201Z,63.72
2019-02-05T03:29:19.222Z,63.34
2019-02-05T03:31:37.571Z,62.98
2019-02-05T03:34:27.119Z,62.68
2019-02-05T03:36:57.695Z,61.96
2019-02-05T03:39:28.677Z,62.67
2019-02-05T03:41:59.214Z,62.82
2019-02-05T03:44:29.672Z,62.77
2019-02-05T03:47:00.150Z,62.79
2019-02-05T03:49:30.568Z,62.80
2019-02-05T04:01:21.120Z,63.24
2019-02-05T04:04:52.783Z,63.22
2019-02-05T04:12:05.596Z,63.36
2019-02-05T04:25:41.523Z,64.39
2019-02-05T04:29:23.389Z,64.24
2019-02-05T04:33:19.593Z,63.79
2019-02-05T04:36:47.059Z,63.64
2019-02-05T04:40:37.172Z,63.40
2019-02-05T04:48:25.548Z,62.67
2019-02-05T04:52:01.585Z,62.34
2019-02-05T04:59:16.416Z,62.13
2019-02-05T05:02:13.934Z,62.75
2019-02-05T05:06:15.510Z,63.05
2019-02-05T05:09:36.230Z,63.08
2019-02-05T05:12:28.073Z,63.47
2019-02-05T05:18:15.316Z,62.96
2019-02-05T05:31:00.029Z,63.60
2019-02-05T05:33:30.307Z,63.27
2019-02-05T05:36:01.489Z,63.04
2019-02-05T05:38:32.080Z,62.90
2019-02-05T05:41:02.343Z,62.70
2019-02-05T05:43:32.807Z,62.41
2019-02-05T05:46:03.128Z,62.31
2019-02-05T05:48:33.950Z,62.30
2019-02-05T05:54:47.276Z,62.10
2019-02-05T05:58:21.866Z,61.96
2019-02-05T06:00:38.553Z,61.52
2019-02-05T06:03:09.096Z,61.48
2019-02-05T06:05:39.965Z,61.53
2019-02-05T06:08:10.783Z,61.34
2019-02-05T06:10:41.793Z,61.33
2019-02-05T06:13:12.338Z,61.23
2019-02-05T06:15:42.745Z,61.06
2019-02-05T06:18:13.074Z,61.10
2019-02-05T06:20:43.765Z,61.16
2019-02-05T06:23:14.113Z,61.11
2019-02-05T06:25:44.617Z,61.26
2019-02-05T06:28:15.136Z,61.13
2019-02-05T06:30:45.682Z,60.99
2019-02-05T06:36:36.605Z,60.67
2019-02-05T06:39:09.991Z,60.34
2019-02-05T06:41:40.602Z,60.66
2019-02-05T06:44:12.240Z,60.15
2019-02-05T06:49:34.266Z,60.35
2019-02-05T06:52:04.802Z,60.04
2019-02-05T06:57:45.819Z,60.24
2019-02-05T07:00:20.470Z,60.54
2019-02-05T07:03:09.838Z,60.79
2019-02-05T07:05:40.339Z,60.39
2019-02-05T07:08:10.770Z,60.30
2019-02-05T07:10:41.117Z,59.97
2019-02-05T07:13:12.535Z,59.99
2019-02-05T07:15:42.860Z,60.14
2019-02-05T07:18:13.218Z,60.25
2019-02-05T07:20:43.605Z,60.11
2019-02-05T07:23:14.080Z,60.44
2019-02-05T07:28:35.572Z,60.54
2019-02-05T07:33:56.711Z,61.14
2019-02-05T07:36:26.912Z,61.11
2019-02-05T07:38:57.370Z,60.98
2019-02-05T07:41:27.922Z,60.88
2019-02-05T07:43:58.445Z,60.43
2019-02-05T07:46:29.743Z,59.83
2019-02-05T07:49:00.833Z,59.67
2019-02-05T07:51:35.339Z,59.66
2019-02-05T07:54:08.178Z,59.59
2019-02-05T08:00:45.923Z,58.02
2019-02-05T08:03:16.726Z,59.18
2019-02-05T08:09:39.894Z,58.63
2019-02-05T08:12:31.009Z,58.39
2019-02-05T08:15:09.974Z,57.89
2019-02-05T08:18:09.934Z,57.94
2019-02-05T08:23:09.173Z,57.87
2019-02-05T08:24:01.410Z,57.84
2019-02-05T08:26:32.612Z,57.07
2019-02-05T08:33:16.879Z,55.36
2019-02-05T08:42:17.815Z,55.08
2019-02-05T08:46:16.614Z,55.10
2019-02-05T08:52:44.055Z,54.55
2019-02-05T08:55:15.764Z,55.60
2019-02-05T08:57:46.643Z,56.17
2019-02-05T09:01:19.279Z,56.37
2019-02-05T09:04:51.447Z,56.35
2019-02-05T09:12:10.039Z,57.73
2019-02-05T09:15:39.858Z,58.34
2019-02-05T09:27:57.462Z,58.16
2019-02-05T09:35:08.315Z,57.54
2019-02-05T09:37:36.264Z,56.85
2019-02-05T09:40:54.577Z,57.31
2019-02-05T09:43:25.320Z,56.96
2019-02-05T09:46:22.006Z,57.57
2019-02-05T09:49:03.761Z,57.63
2019-02-05T09:52:48.772Z,58.20
2019-02-05T09:55:47.782Z,58.67
2019-02-05T09:58:53.784Z,58.73
2019-02-05T10:11:49.899Z,59.83
2019-02-05T10:14:23.181Z,60.12
2019-02-05T10:16:54.399Z,60.40
2019-02-05T10:26:01.932Z,60.53
2019-02-05T10:29:08.201Z,60.48
2019-02-05T10:31:38.566Z,60.33
2019-02-05T10:34:08.910Z,61.53
2019-02-05T10:36:39.749Z,62.77
2019-02-05T10:50:44.585Z,65.07
2019-02-05T10:53:14.881Z,64.20
2019-02-05T10:55:45.382Z,64.37
2019-02-05T10:58:16.441Z,64.11
2019-02-05T11:00:47.229Z,63.39
2019-02-05T11:03:17.695Z,62.66
2019-02-05T11:12:44.205Z,62.10
2019-02-05T11:15:17.071Z,62.77
2019-02-05T11:17:47.360Z,62.87
2019-02-05T11:20:19.828Z,63.19
2019-02-05T11:34:05.107Z,62.10
2019-02-05T11:37:32.479Z,61.89
2019-02-05T11:40:56.380Z,61.19
2019-02-05T11:42:55.571Z,61.18
2019-02-05T11:45:25.941Z,60.14
2019-02-05T11:47:56.530Z,59.17
2019-02-05T11:50:28.461Z,59.08
2019-02-05T11:57:05.247Z,59.57
2019-02-05T11:59:49.503Z,59.11
2019-02-05T12:02:27.802Z,59.21
2019-02-05T12:04:58.231Z,58.81
2019-02-05T12:07:28.657Z,58.65
2019-02-05T12:13:23.579Z,58.40
2019-02-05T12:15:53.872Z,58.88
2019-02-05T12:18:24.478Z,58.88
2019-02-05T12:20:54.808Z,58.40
2019-02-05T12:24:16.565Z,58.72
2019-02-05T12:27:28.659Z,58.57
2019-02-05T12:30:45.721Z,56.84
2019-02-05T12:33:59.883Z,57.13
2019-02-05T12:36:57.542Z,55.48
2019-02-05T12:39:28.202Z,54.76
2019-02-05T12:41:58.742Z,54.28
2019-02-05T12:44:29.566Z,54.23
2019-02-05T12:47:00.139Z,54.23
2019-02-05T13:06:37.427Z,56.55
2019-02-05T13:09:41.736Z,57.78
2019-02-05T13:16:02.417Z,57.63
2019-02-05T13:21:28.628Z,57.87
2019-02-05T13:23:59.040Z,57.78
2019-02-05T13:26:29.322Z,57.52
2019-02-05T13:28:59.641Z,58.02
2019-02-05T13:32:47.562Z,59.01
2019-02-05T13:35:47.401Z,58.22
2019-02-05T13:38:36.185Z,57.71
2019-02-05T13:41:41.311Z,57.32
2019-02-05T13:44:39.171Z,57.01
2019-02-05T13:47:43.886Z,56.94
2019-02-05T13:51:08.582Z,57.08
2019-02-05T13:54:00.233Z,57.21
2019-02-05T13:56:56.204Z,57.06
2019-02-05T13:59:23.782Z,57.66
2019-02-05T14:01:54.595Z,57.74
2019-02-05T14:04:24.877Z,58.67
2019-02-05T14:06:55.864Z,58.92
2019-02-05T14:09:26.352Z,58.51
2019-02-05T14:11:56.832Z,58.66
2019-02-05T14:18:54.658Z,59.74
2019-02-05T14:21:15.252Z,60.71
2019-02-05T14:23:45.590Z,60.88
2019-02-05T14:30:19.110Z,60.92
2019-02-05T14:33:40.599Z,61.02
2019-02-05T14:36:58.544Z,61.30
2019-02-05T14:39:28.976Z,61.44
2019-02-05T14:41:59.266Z,62.03
2019-02-05T14:44:29.675Z,62.09
2019-02-05T14:47:00.031Z,61.70
2019-02-05T14:49:30.126Z,62.06
2019-02-05T14:52:00.465Z,61.47
2019-02-05T14:56:02.637Z,61.74
2019-02-05T15:08:52.087Z,63.56
2019-02-05T15:11:44.321Z,63.56
2019-02-05T15:14:43.094Z,63.38
2019-02-05T15:17:38.578Z,63.91
2019-02-05T15:20:50.521Z,63.47
2019-02-05T15:29:57.485Z,64.09
2019-02-05T15:33:31.599Z,64.17
2019-02-05T15:39:45.336Z,64.97
2019-02-05T15:42:51.042Z,64.78
2019-02-05T15:46:04.172Z,65.02
2019-02-05T15:48:49.206Z,65.16
2019-02-05T15:51:37.965Z,65.30
2019-02-05T15:54:47.715Z,65.38
2019-02-05T15:57:33.919Z,65.37
2019-02-05T16:00:40.272Z,65.44
2019-02-05T16:07:21.137Z,65.82
2019-02-05T16:09:48.910Z,66.02
2019-02-05T16:12:19.242Z,66.35
2019-02-05T16:14:49.587Z,66.14
2019-02-05T16:17:19.883Z,66.57
2019-02-05T16:21:16.422Z,67.03
2019-02-05T16:24:04.449Z,67.08
2019-02-05T16:26:42.332Z,66.89
2019-02-05T16:29:26.435Z,66.90
2019-02-05T16:32:22.044Z,67.19
2019-02-05T16:35:22.407Z,66.94
2019-02-05T16:38:07.553Z,67.11
2019-02-05T16:41:19.089Z,67.06
2019-02-05T16:44:06.166Z,67.23
2019-02-05T16:47:06.014Z,67.42
2019-02-05T16:49:46.411Z,67.33
2019-02-05T16:55:12.868Z,67.43
2019-02-05T16:57:47.968Z,67.19
2019-02-05T17:00:23.586Z,67.49
2019-02-05T17:02:53.948Z,67.44
2019-02-05T17:05:49.681Z,67.31
2019-02-05T17:11:59.511Z,67.44
2019-02-05T17:14:34.818Z,67.73
2019-02-05T17:17:22.560Z,67.74
2019-02-05T17:20:06.219Z,67.71
2019-02-05T17:22:53.674Z,67.69
2019-02-05T17:28:29.612Z,67.92
2019-02-05T17:31:37.921Z,67.93
2019-02-05T17:34:34.623Z,67.84
2019-02-05T17:37:15.950Z,68.00
2019-02-05T17:39:59.374Z,68.58
2019-02-05T17:42:43.326Z,68.46
2019-02-05T17:45:48.355Z,68.81
2019-02-05T17:51:57.253Z,69.10
2019-02-05T17:54:27.082Z,69.43
2019-02-05T17:57:42.313Z,69.46
2019-02-05T18:00:37.543Z,69.76
2019-02-05T18:03:18.664Z,69.94
2019-02-05T18:06:03.675Z,69.82
2019-02-05T18:08:54.933Z,69.79
2019-02-05T18:11:42.947Z,69.92
2019-02-05T18:14:28.954Z,69.98
2019-02-05T18:17:24.778Z,70.10
2019-02-05T18:20:06.656Z,70.28
2019-02-05T18:23:15.515Z,70.14
2019-02-05T18:26:04.084Z,70.01
2019-02-05T18:29:03.018Z,70.21
2019-02-05T18:31:43.860Z,70.36
2019-02-05T18:34:21.198Z,70.26
2019-02-05T18:37:28.437Z,70.43
2019-02-05T18:39:39.966Z,70.63
2019-02-05T18:43:07.843Z,70.68
2019-02-05T18:46:15.197Z,71.08
2019-02-05T18:49:04.279Z,71.10
2019-02-05T18:51:27.919Z,71.27
2019-02-05T18:54:01.278Z,71.25
2019-02-05T18:56:39.031Z,72.10
2019-02-05T18:59:09.494Z,72.28
2019-02-05T19:01:40.106Z,72.21
2019-02-05T19:04:10.543Z,72.56
2019-02-05T19:06:41.102Z,72.74
2019-02-05T19:09:47.869Z,72.80
2019-02-05T19:12:30.431Z,72.74
2019-02-05T19:15:11.610Z,73.33
2019-02-05T19:18:01.654Z,73.58
2019-02-05T19:20:47.201Z,74.13
2019-02-05T19:24:00.229Z,74.37
2019-02-05T19:26:29.734Z,74.70
2019-02-05T19:29:18.987Z,75.19
2019-02-05T19:31:59.079Z,75.35
2019-02-05T19:34:45.433Z,75.08
2019-02-05T19:37:33.601Z,74.77
2019-02-05T19:40:21.917Z,74.80
2019-02-05T19:43:40.451Z,74.82
2019-02-05T19:46:31.096Z,74.90
2019-02-05T19:49:06.632Z,75.37
2019-02-05T19:51:37.378Z,75.32
2019-02-05T19:54:08.094Z,75.54
2019-02-05T19:56:41.549Z,75.61
2019-02-05T19:59:12.628Z,75.29
2019-02-05T20:01:43.333Z,75.42
2019-02-05T20:05:07.818Z,75.60
2019-02-05T20:08:46.459Z,75.62
2019-02-05T20:10:52.774Z,75.58
2019-02-05T20:13:40.455Z,75.46
2019-02-05T20:16:23.067Z,75.49
2019-02-05T20:19:06.488Z,75.75
2019-02-05T20:21:55.924Z,75.75
2019-02-05T20:27:58.772Z,76.06
2019-02-05T20:30:29.349Z,76.01
2019-02-05T20:32:59.947Z,75.71
2019-02-05T20:35:30.367Z,75.63
2019-02-05T20:38:00.929Z,75.49
2019-02-05T20:40:31.455Z,75.35
2019-02-05T20:43:02.683Z,75.10
2019-02-05T20:45:32.933Z,74.82
2019-02-05T20:48:03.279Z,74.73
2019-02-05T20:50:33.663Z,74.55
2019-02-05T20:53:13.463Z,74.25
2019-02-05T20:55:40.098Z,73.99
2019-02-05T20:58:19.316Z,73.90
2019-02-05T21:00:49.778Z,73.87
2019-02-05T21:03:20.620Z,73.93
2019-02-05T21:05:50.940Z,73.64
2019-02-05T21:08:21.364Z,73.45
2019-02-05T21:10:52.383Z,73.50
2019-02-05T21:13:22.880Z,73.44
2019-02-05T21:16:04.581Z,73.94
2019-02-05T21:18:46.611Z,73.48
2019-02-05T21:21:48.604Z,73.23
2019-02-05T21:25:34.584Z,72.85
2019-02-05T21:31:33.694Z,72.44
2019-02-05T21:34:25.128Z,72.53
2019-02-05T21:37:25.010Z,72.36
2019-02-05T21:40:05.655Z,72.06
2019-02-05T21:42:49.439Z,72.32
2019-02-05T21:49:04.007Z,72.18
2019-02-05T21:52:04.032Z,72.66
2019-02-05T21:55:07.890Z,72.62
2019-02-05T21:58:02.164Z,72.79
2019-02-05T22:01:08.084Z,72.48
2019-02-05T22:03:38.573Z,72.56
2019-02-05T22:07:05.045Z,72.26
2019-02-05T22:10:38.474Z,72.23
2019-02-05T22:14:00.609Z,72.02
2019-02-05T22:20:17.404Z,71.51
2019-02-05T22:22:47.842Z,71.40
2019-02-05T22:25:22.397Z,71.22
2019-02-05T22:28:06.367Z,71.11
2019-02-05T22:30:57.228Z,70.99
2019-02-05T22:33:35.671Z,70.89
2019-02-05T22:36:12.924Z,70.78
2019-02-05T22:39:50.442Z,70.68
2019-02-05T22:43:14.941Z,70.51
2019-02-05T22:50:20.061Z,70.26
2019-02-05T22:53:25.349Z,70.12
2019-02-05T22:56:04.666Z,70.43
2019-02-05T23:03:34.280Z,70.59
2019-02-05T23:18:24.746Z,70.21
2019-02-05T23:21:32.844Z,70.27
2019-02-05T23:24:42.604Z,70.50
2019-02-05T23:27:36.952Z,70.66
2019-02-05T23:30:45.723Z,70.48
2019-02-05T23:37:26.774Z,70.69
2019-02-05T23:39:56.733Z,70.89
2019-02-05T23:42:27.490Z,70.88
2019-02-05T23:44:58.287Z,71.06
2019-02-05T23:47:28.596Z,70.92
2019-02-05T23:49:59.012Z,70.94
2019-02-05T23:52:29.424Z,70.70
2019-02-05T23:55:00.377Z,70.79
2019-02-05T23:57:30.695Z,70.96
